sensor_id;sensor_type;location;lat;lon;timestamp;pressure;altitude;pressure_sealevel;temperature;humidity
84815;BME280;75050;53.190;5.562;2024-03-08T00:01:06;102342.66;;;7.50;82.72
84815;BME280;75050;53.190;5.562;2024-03-08T00:03:32;102344.34;;;7.54;82.64
84815;BME280;75050;53.190;5.562;2024-03-08T00:05:58;102347.81;;;7.53;82.68
84815;BME280;75050;53.190;5.562;2024-03-08T00:08:23;102329.78;;;7.48;82.55
84815;BME280;75050;53.190;5.562;2024-03-08T00:10:49;102333.22;;;7.49;82.55
84815;BME280;75050;53.190;5.562;2024-03-08T00:13:14;102328.03;;;7.47;82.57
84815;BME280;75050;53.190;5.562;2024-03-08T00:15:40;102327.13;;;7.50;82.71
84815;BME280;75050;53.190;5.562;2024-03-08T00:18:06;102329.72;;;7.50;82.56
84815;BME280;75050;53.190;5.562;2024-03-08T00:20:32;102325.44;;;7.49;82.56
84815;BME280;75050;53.190;5.562;2024-03-08T00:22:57;102320.28;;;7.47;82.48
84815;BME280;75050;53.190;5.562;2024-03-08T00:25:23;102312.59;;;7.43;82.60
84815;BME280;75050;53.190;5.562;2024-03-08T00:27:48;102315.09;;;7.46;82.67
84815;BME280;75050;53.190;5.562;2024-03-08T00:30:14;102314.25;;;7.45;82.60
84815;BME280;75050;53.190;5.562;2024-03-08T00:32:40;102318.59;;;7.45;82.43
84815;BME280;75050;53.190;5.562;2024-03-08T00:35:06;102314.28;;;7.44;82.52
84815;BME280;75050;53.190;5.562;2024-03-08T00:37:32;102312.59;;;7.43;82.47
84815;BME280;75050;53.190;5.562;2024-03-08T00:39:59;102311.81;;;7.39;82.43
84815;BME280;75050;53.190;5.562;2024-03-08T00:42:25;102317.78;;;7.43;82.53
84815;BME280;75050;53.190;5.562;2024-03-08T00:44:50;102310.88;;;7.42;82.40
84815;BME280;75050;53.190;5.562;2024-03-08T00:47:16;102315.22;;;7.41;82.42
84815;BME280;75050;53.190;5.562;2024-03-08T00:49:42;102311.78;;;7.41;82.50
84815;BME280;75050;53.190;5.562;2024-03-08T00:52:07;102312.66;;;7.40;82.92
84815;BME280;75050;53.190;5.562;2024-03-08T00:54:36;102303.19;;;7.39;82.46
84815;BME280;75050;53.190;5.562;2024-03-08T00:57:02;102304.06;;;7.38;82.50
84815;BME280;75050;53.190;5.562;2024-03-08T00:59:32;102290.31;;;7.34;82.56
84815;BME280;75050;53.190;5.562;2024-03-08T01:02:01;102289.38;;;7.37;82.40
84815;BME280;75050;53.190;5.562;2024-03-08T01:04:27;102275.75;;;7.29;82.50
84815;BME280;75050;53.190;5.562;2024-03-08T01:06:56;102289.44;;;7.35;82.48
84815;BME280;75050;53.190;5.562;2024-03-08T01:09:25;102291.16;;;7.35;82.41
84815;BME280;75050;53.190;5.562;2024-03-08T01:11:52;102282.56;;;7.33;82.34
84815;BME280;75050;53.190;5.562;2024-03-08T01:14:19;102275.72;;;7.30;82.50
84815;BME280;75050;53.190;5.562;2024-03-08T01:16:47;102274.78;;;7.33;82.39
84815;BME280;75050;53.190;5.562;2024-03-08T01:19:13;102275.69;;;7.32;82.43
84815;BME280;75050;53.190;5.562;2024-03-08T01:21:38;102271.38;;;7.31;82.36
84815;BME280;75050;53.190;5.562;2024-03-08T01:24:04;102266.19;;;7.31;82.49
84815;BME280;75050;53.190;5.562;2024-03-08T01:26:30;102266.22;;;7.29;82.32
84815;BME280;75050;53.190;5.562;2024-03-08T01:28:55;102254.31;;;7.23;82.39
84815;BME280;75050;53.190;5.562;2024-03-08T01:31:21;102258.44;;;7.29;82.28
84815;BME280;75050;53.190;5.562;2024-03-08T01:33:46;102253.31;;;7.28;82.31
84815;BME280;75050;53.190;5.562;2024-03-08T01:36:12;102249.00;;;7.27;82.33
84815;BME280;75050;53.190;5.562;2024-03-08T01:38:41;102237.03;;;7.22;82.43
84815;BME280;75050;53.190;5.562;2024-03-08T01:41:07;102244.72;;;7.26;82.28
84815;BME280;75050;53.190;5.562;2024-03-08T01:43:32;102241.25;;;7.25;82.20
84815;BME280;75050;53.190;5.562;2024-03-08T01:45:58;102233.50;;;7.24;82.19
84815;BME280;75050;53.190;5.562;2024-03-08T01:48:25;102235.25;;;7.24;82.14
84815;BME280;75050;53.190;5.562;2024-03-08T01:50:51;102224.19;;;7.17;82.35
84815;BME280;75050;53.190;5.562;2024-03-08T01:53:18;102232.69;;;7.22;82.25
84815;BME280;75050;53.190;5.562;2024-03-08T01:55:46;102212.94;;;7.17;82.30
84815;BME280;75050;53.190;5.562;2024-03-08T01:58:12;102229.25;;;7.22;82.39
84815;BME280;75050;53.190;5.562;2024-03-08T02:00:44;102225.81;;;7.21;82.42
84815;BME280;75050;53.190;5.562;2024-03-08T02:03:10;102210.44;;;7.14;82.15
84815;BME280;75050;53.190;5.562;2024-03-08T02:05:40;102199.28;;;7.10;82.10
84815;BME280;75050;53.190;5.562;2024-03-08T02:08:06;102213.78;;;7.19;82.22
84815;BME280;75050;53.190;5.562;2024-03-08T02:10:33;102213.78;;;7.19;82.23
84815;BME280;75050;53.190;5.562;2024-03-08T02:13:01;102211.22;;;7.17;82.25
84815;BME280;75050;53.190;5.562;2024-03-08T02:15:26;102203.53;;;7.14;82.34
84815;BME280;75050;53.190;5.562;2024-03-08T02:17:52;102206.94;;;7.16;82.14
84815;BME280;75050;53.190;5.562;2024-03-08T02:20:18;102181.31;;;7.04;82.30
84815;BME280;75050;53.190;5.562;2024-03-08T02:22:45;102194.91;;;7.14;82.21
84815;BME280;75050;53.190;5.562;2024-03-08T02:25:11;102188.94;;;7.10;82.19
84815;BME280;75050;53.190;5.562;2024-03-08T02:27:36;102194.06;;;7.13;82.12
84815;BME280;75050;53.190;5.562;2024-03-08T02:30:02;102183.72;;;7.12;82.15
84815;BME280;75050;53.190;5.562;2024-03-08T02:32:27;102186.31;;;7.12;82.19
84815;BME280;75050;53.190;5.562;2024-03-08T02:34:56;102168.41;;;7.01;82.02
84815;BME280;75050;53.190;5.562;2024-03-08T02:37:25;102185.50;;;7.10;82.14
84815;BME280;75050;53.190;5.562;2024-03-08T02:39:50;102182.03;;;7.09;82.05
84815;BME280;75050;53.190;5.562;2024-03-08T02:42:15;102178.63;;;7.07;82.15
84815;BME280;75050;53.190;5.562;2024-03-08T02:44:44;102176.03;;;7.07;82.29
84815;BME280;75050;53.190;5.562;2024-03-08T02:47:09;102173.50;;;7.06;82.15
84815;BME280;75050;53.190;5.562;2024-03-08T02:49:35;102168.31;;;7.06;82.07
84815;BME280;75050;53.190;5.562;2024-03-08T02:52:02;102167.44;;;7.05;82.19
84815;BME280;75050;53.190;5.562;2024-03-08T02:54:27;102159.66;;;7.05;82.09
84815;BME280;75050;53.190;5.562;2024-03-08T02:56:53;102144.31;;;6.96;82.19
84815;BME280;75050;53.190;5.562;2024-03-08T02:59:18;102152.00;;;7.02;82.07
84815;BME280;75050;53.190;5.562;2024-03-08T03:01:44;102151.09;;;7.02;81.99
84815;BME280;75050;53.190;5.562;2024-03-08T03:04:09;102146.84;;;7.01;82.11
84815;BME280;75050;53.190;5.562;2024-03-08T03:06:35;102141.69;;;6.99;82.09
84815;BME280;75050;53.190;5.562;2024-03-08T03:09:01;102141.69;;;6.99;82.00
84815;BME280;75050;53.190;5.562;2024-03-08T03:11:26;102142.59;;;6.98;82.09
84815;BME280;75050;53.190;5.562;2024-03-08T03:13:52;102128.84;;;6.95;82.03
84815;BME280;75050;53.190;5.562;2024-03-08T03:16:18;102134.84;;;6.97;81.99
84815;BME280;75050;53.190;5.562;2024-03-08T03:18:45;102133.97;;;6.96;82.05
84815;BME280;75050;53.190;5.562;2024-03-08T03:21:11;102126.19;;;6.96;81.91
84815;BME280;75050;53.190;5.562;2024-03-08T03:23:38;102129.69;;;6.95;82.12
84815;BME280;75050;53.190;5.562;2024-03-08T03:26:05;102117.69;;;6.91;82.03
84815;BME280;75050;53.190;5.562;2024-03-08T03:28:32;102127.13;;;6.94;81.94
84815;BME280;75050;53.190;5.562;2024-03-08T03:30:58;102121.97;;;6.92;81.95
84815;BME280;75050;53.190;5.562;2024-03-08T03:33:24;102118.53;;;6.92;82.08
84815;BME280;75050;53.190;5.562;2024-03-08T03:35:50;102111.72;;;6.88;81.92
84815;BME280;75050;53.190;5.562;2024-03-08T03:38:17;102104.91;;;6.86;81.99
84815;BME280;75050;53.190;5.562;2024-03-08T03:40:42;102111.72;;;6.89;81.94
84815;BME280;75050;53.190;5.562;2024-03-08T03:43:10;102104.81;;;6.88;82.02
84815;BME280;75050;53.190;5.562;2024-03-08T03:45:36;102108.25;;;6.89;81.83
84815;BME280;75050;53.190;5.562;2024-03-08T03:48:06;102072.41;;;6.71;81.94
84815;BME280;75050;53.190;5.562;2024-03-08T03:50:31;102094.56;;;6.84;81.97
84815;BME280;75050;53.190;5.562;2024-03-08T03:52:59;102099.72;;;6.86;82.00
84815;BME280;75050;53.190;5.562;2024-03-08T03:55:25;102069.84;;;6.70;81.83
84815;BME280;75050;53.190;5.562;2024-03-08T03:57:50;102101.44;;;6.85;81.77
84815;BME280;75050;53.190;5.562;2024-03-08T04:00:16;102093.66;;;6.85;81.75
84815;BME280;75050;53.190;5.562;2024-03-08T04:02:41;102087.69;;;6.82;81.77
84815;BME280;75050;53.190;5.562;2024-03-08T04:05:08;102088.56;;;6.82;81.83
84815;BME280;75050;53.190;5.562;2024-03-08T04:07:34;102087.69;;;6.82;81.92
84815;BME280;75050;53.190;5.562;2024-03-08T04:10:01;102080.81;;;6.81;81.76
84815;BME280;75050;53.190;5.562;2024-03-08T04:12:27;102076.53;;;6.80;81.81
84815;BME280;75050;53.190;5.562;2024-03-08T04:14:54;102058.59;;;6.71;81.78
84815;BME280;75050;53.190;5.562;2024-03-08T04:17:20;102079.09;;;6.80;81.77
84815;BME280;75050;53.190;5.562;2024-03-08T04:19:46;102075.69;;;6.78;81.82
84815;BME280;75050;53.190;5.562;2024-03-08T04:22:13;102066.25;;;6.77;81.86
84815;BME280;75050;53.190;5.562;2024-03-08T04:24:38;102058.72;;;6.66;81.66
84815;BME280;75050;53.190;5.562;2024-03-08T04:27:06;102070.56;;;6.76;81.75
84815;BME280;75050;53.190;5.562;2024-03-08T04:29:31;102071.47;;;6.75;81.95
84815;BME280;75050;53.190;5.562;2024-03-08T04:31:58;102073.22;;;6.75;81.45
84815;BME280;75050;53.190;5.562;2024-03-08T04:34:23;102064.56;;;6.74;81.71
84815;BME280;75050;53.190;5.562;2024-03-08T04:36:49;102066.34;;;6.72;81.61
84815;BME280;75050;53.190;5.562;2024-03-08T04:39:15;102081.00;;;6.73;81.54
84815;BME280;75050;53.190;5.562;2024-03-08T04:41:41;102061.28;;;6.68;81.54
84815;BME280;75050;53.190;5.562;2024-03-08T04:44:09;102057.09;;;6.62;81.69
84815;BME280;75050;53.190;5.562;2024-03-08T04:46:34;102078.47;;;6.70;81.76
84815;BME280;75050;53.190;5.562;2024-03-08T04:49:00;102069.84;;;6.70;81.54
84815;BME280;75050;53.190;5.562;2024-03-08T04:51:26;102060.47;;;6.66;81.70
84815;BME280;75050;53.190;5.562;2024-03-08T04:53:52;102052.84;;;6.60;81.60
84815;BME280;75050;53.190;5.562;2024-03-08T04:56:17;102062.97;;;6.69;81.59
84815;BME280;75050;53.190;5.562;2024-03-08T04:58:44;102059.56;;;6.67;81.58
84815;BME280;75050;53.190;5.562;2024-03-08T05:01:12;102051.78;;;6.67;81.61
84815;BME280;75050;53.190;5.562;2024-03-08T05:03:37;102057.03;;;6.65;81.55
84815;BME280;75050;53.190;5.562;2024-03-08T05:06:03;102050.09;;;6.66;81.49
84815;BME280;75050;53.190;5.562;2024-03-08T05:08:29;102057.03;;;6.65;81.63
84815;BME280;75050;53.190;5.562;2024-03-08T05:10:55;102060.50;;;6.64;81.63
84815;BME280;75050;53.190;5.562;2024-03-08T05:13:20;102051.00;;;6.63;81.66
84815;BME280;75050;53.190;5.562;2024-03-08T05:15:49;102053.59;;;6.63;81.66
84815;BME280;75050;53.190;5.562;2024-03-08T05:18:17;102058.84;;;6.62;81.57
84815;BME280;75050;53.190;5.562;2024-03-08T05:20:43;102046.81;;;6.58;81.63
84815;BME280;75050;53.190;5.562;2024-03-08T05:23:08;102062.25;;;6.62;81.64
84815;BME280;75050;53.190;5.562;2024-03-08T05:25:34;102052.94;;;6.55;81.58
84815;BME280;75050;53.190;5.562;2024-03-08T05:28:00;102052.84;;;6.60;81.55
84815;BME280;75050;53.190;5.562;2024-03-08T05:30:25;102062.31;;;6.59;81.82
84815;BME280;75050;53.190;5.562;2024-03-08T05:32:51;102061.47;;;6.59;81.54
84815;BME280;75050;53.190;5.562;2024-03-08T05:35:16;102059.75;;;6.58;81.60
84815;BME280;75050;53.190;5.562;2024-03-08T05:37:42;102045.34;;;6.48;81.24
84815;BME280;75050;53.190;5.562;2024-03-08T05:40:08;102054.69;;;6.53;81.71
84815;BME280;75050;53.190;5.562;2024-03-08T05:42:37;102025.72;;;6.38;81.50
84815;BME280;75050;53.190;5.562;2024-03-08T05:45:06;102059.88;;;6.53;81.08
84815;BME280;75050;53.190;5.562;2024-03-08T05:47:32;102053.06;;;6.49;81.50
84815;BME280;75050;53.190;5.562;2024-03-08T05:50:00;102050.44;;;6.51;81.45
84815;BME280;75050;53.190;5.562;2024-03-08T05:52:26;102053.84;;;6.53;81.42
84815;BME280;75050;53.190;5.562;2024-03-08T05:54:52;102041.13;;;6.43;81.48
84815;BME280;75050;53.190;5.562;2024-03-08T05:57:17;102051.25;;;6.53;81.51
84815;BME280;75050;53.190;5.562;2024-03-08T05:59:43;102060.78;;;6.52;81.58
84815;BME280;75050;53.190;5.562;2024-03-08T06:02:08;102039.38;;;6.43;81.42
84815;BME280;75050;53.190;5.562;2024-03-08T06:04:34;102037.72;;;6.42;81.20
84815;BME280;75050;53.190;5.562;2024-03-08T06:07:00;102045.34;;;6.47;81.46
84815;BME280;75050;53.190;5.562;2024-03-08T06:09:26;102053.06;;;6.49;81.44
84815;BME280;75050;53.190;5.562;2024-03-08T06:11:52;102021.50;;;6.34;81.75
84815;BME280;75050;53.190;5.562;2024-03-08T06:14:19;102053.09;;;6.48;81.47
84815;BME280;75050;53.190;5.562;2024-03-08T06:16:47;102046.31;;;6.43;81.32
84815;BME280;75050;53.190;5.562;2024-03-08T06:19:15;102044.69;;;6.39;81.40
84815;BME280;75050;53.190;5.562;2024-03-08T06:21:40;102050.53;;;6.47;81.45
84815;BME280;75050;53.190;5.562;2024-03-08T06:24:06;102054.88;;;6.46;81.38
84815;BME280;75050;53.190;5.562;2024-03-08T06:26:32;102047.09;;;6.46;81.38
84815;BME280;75050;53.190;5.562;2024-03-08T06:28:57;102046.28;;;6.44;81.29
84815;BME280;75050;53.190;5.562;2024-03-08T06:31:23;102037.69;;;6.44;81.48
84815;BME280;75050;53.190;5.562;2024-03-08T06:33:49;102038.53;;;6.44;81.40
84815;BME280;75050;53.190;5.562;2024-03-08T06:36:17;102038.56;;;6.43;81.33
84815;BME280;75050;53.190;5.562;2024-03-08T06:38:49;102042.88;;;6.42;81.33
84815;BME280;75050;53.190;5.562;2024-03-08T06:41:14;102040.28;;;6.42;81.30
84815;BME280;75050;53.190;5.562;2024-03-08T06:43:43;102030.13;;;6.35;81.44
84815;BME280;75050;53.190;5.562;2024-03-08T06:46:09;102029.97;;;6.41;81.35
84815;BME280;75050;53.190;5.562;2024-03-08T06:48:34;102036.00;;;6.41;81.36
84815;BME280;75050;53.190;5.562;2024-03-08T06:51:02;102030.13;;;6.33;81.44
84815;BME280;75050;53.190;5.562;2024-03-08T06:53:28;102041.22;;;6.40;81.35
84815;BME280;75050;53.190;5.562;2024-03-08T06:55:53;102031.75;;;6.39;81.10
84815;BME280;75050;53.190;5.562;2024-03-08T06:58:19;102021.53;;;6.33;81.45
84815;BME280;75050;53.190;5.562;2024-03-08T07:00:45;102030.03;;;6.38;81.18
84815;BME280;75050;53.190;5.562;2024-03-08T07:03:10;102033.50;;;6.38;81.39
84815;BME280;75050;53.190;5.562;2024-03-08T07:05:37;102035.19;;;6.38;81.28
84815;BME280;75050;53.190;5.562;2024-03-08T07:08:03;102030.03;;;6.38;81.28
84815;BME280;75050;53.190;5.562;2024-03-08T07:10:28;102028.34;;;6.37;81.23
84815;BME280;75050;53.190;5.562;2024-03-08T07:12:54;102032.59;;;6.39;81.42
84815;BME280;75050;53.190;5.562;2024-03-08T07:15:20;102025.72;;;6.38;81.36
84815;BME280;75050;53.190;5.562;2024-03-08T07:17:46;102028.28;;;6.40;81.31
84815;BME280;75050;53.190;5.562;2024-03-08T07:20:12;102033.41;;;6.41;81.17
84815;BME280;75050;53.190;5.562;2024-03-08T07:22:38;102029.09;;;6.42;81.29
84815;BME280;75050;53.190;5.562;2024-03-08T07:25:07;102025.72;;;6.38;81.33
84815;BME280;75050;53.190;5.562;2024-03-08T07:27:33;102017.16;;;6.36;81.33
84815;BME280;75050;53.190;5.562;2024-03-08T07:30:00;102028.16;;;6.44;81.36
84815;BME280;75050;53.190;5.562;2024-03-08T07:32:26;102021.25;;;6.45;81.25
84815;BME280;75050;53.190;5.562;2024-03-08T07:34:53;102023.81;;;6.46;81.28
84815;BME280;75050;53.190;5.562;2024-03-08T07:37:20;102005.03;;;6.38;81.09
84815;BME280;75050;53.190;5.562;2024-03-08T07:39:46;102022.94;;;6.47;81.24
84815;BME280;75050;53.190;5.562;2024-03-08T07:42:11;102022.88;;;6.48;81.38
84815;BME280;75050;53.190;5.562;2024-03-08T07:44:37;101998.13;;;6.37;81.15
84815;BME280;75050;53.190;5.562;2024-03-08T07:47:03;102015.09;;;6.50;81.22
84815;BME280;75050;53.190;5.562;2024-03-08T07:49:29;101981.81;;;6.34;81.24
84815;BME280;75050;53.190;5.562;2024-03-08T07:51:55;102008.91;;;6.55;81.26
84815;BME280;75050;53.190;5.562;2024-03-08T07:54:21;102002.81;;;6.58;81.27
84815;BME280;75050;53.190;5.562;2024-03-08T07:56:46;101987.44;;;6.52;81.32
84815;BME280;75050;53.190;5.562;2024-03-08T07:59:12;102002.75;;;6.61;81.33
84815;BME280;75050;53.190;5.562;2024-03-08T08:01:37;102005.25;;;6.65;81.25
84815;BME280;75050;53.190;5.562;2024-03-08T08:04:03;101994.94;;;6.64;81.29
84815;BME280;75050;53.190;5.562;2024-03-08T08:06:28;101997.34;;;6.71;81.20
84815;BME280;75050;53.190;5.562;2024-03-08T08:08:57;101995.53;;;6.75;81.21
84815;BME280;75050;53.190;5.562;2024-03-08T08:11:22;101978.41;;;6.69;81.54
84815;BME280;75050;53.190;5.562;2024-03-08T08:13:48;101994.53;;;6.80;81.18
84815;BME280;75050;53.190;5.562;2024-03-08T08:16:13;101985.81;;;6.83;81.19
84815;BME280;75050;53.190;5.562;2024-03-08T08:18:39;101984.84;;;6.87;81.10
84815;BME280;75050;53.190;5.562;2024-03-08T08:21:06;101983.91;;;6.89;81.04
84815;BME280;75050;53.190;5.562;2024-03-08T08:23:32;101979.50;;;6.92;81.08
84815;BME280;75050;53.190;5.562;2024-03-08T08:25:58;101975.06;;;6.97;81.22
84815;BME280;75050;53.190;5.562;2024-03-08T08:28:24;101974.09;;;7.01;81.11
84815;BME280;75050;53.190;5.562;2024-03-08T08:30:50;101963.69;;;7.04;81.09
84815;BME280;75050;53.190;5.562;2024-03-08T08:33:15;101967.03;;;7.08;81.03
84815;BME280;75050;53.190;5.562;2024-03-08T08:35:41;101956.63;;;7.09;81.17
84815;BME280;75050;53.190;5.562;2024-03-08T08:38:07;101954.81;;;7.13;80.88
84815;BME280;75050;53.190;5.562;2024-03-08T08:40:34;101957.25;;;7.19;80.99
84815;BME280;75050;53.190;5.562;2024-03-08T08:43:01;101951.13;;;7.21;80.97
84815;BME280;75050;53.190;5.562;2024-03-08T08:45:32;101951.81;;;7.27;80.85
84815;BME280;75050;53.190;5.562;2024-03-08T08:47:58;101950.97;;;7.27;80.84
84815;BME280;75050;53.190;5.562;2024-03-08T08:50:25;101939.53;;;7.34;80.82
84815;BME280;75050;53.190;5.562;2024-03-08T08:52:52;101933.56;;;7.32;80.68
84815;BME280;75050;53.190;5.562;2024-03-08T08:55:18;101942.78;;;7.42;80.58
84815;BME280;75050;53.190;5.562;2024-03-08T08:57:46;101923.84;;;7.38;80.62
84815;BME280;75050;53.190;5.562;2024-03-08T09:00:13;101933.03;;;7.50;80.63
84815;BME280;75050;53.190;5.562;2024-03-08T09:02:41;101936.47;;;7.52;80.45
84815;BME280;75050;53.190;5.562;2024-03-08T09:05:07;101930.31;;;7.54;80.53
84815;BME280;75050;53.190;5.562;2024-03-08T09:07:36;101927.59;;;7.59;80.58
84815;BME280;75050;53.190;5.562;2024-03-08T09:10:03;101930.06;;;7.63;80.31
84815;BME280;75050;53.190;5.562;2024-03-08T09:12:29;101917.03;;;7.64;80.30
84815;BME280;75050;53.190;5.562;2024-03-08T09:14:54;101912.69;;;7.66;80.23
84815;BME280;75050;53.190;5.562;2024-03-08T09:17:21;101904.06;;;7.64;80.24
84815;BME280;75050;53.190;5.562;2024-03-08T09:19:47;101903.13;;;7.68;80.03
84815;BME280;75050;53.190;5.562;2024-03-08T09:22:13;101899.66;;;7.68;80.09
84815;BME280;75050;53.190;5.562;2024-03-08T09:24:38;101904.78;;;7.69;80.08
84815;BME280;75050;53.190;5.562;2024-03-08T09:27:04;101902.19;;;7.69;79.98
84815;BME280;75050;53.190;5.562;2024-03-08T09:29:30;101891.81;;;7.69;79.86
84815;BME280;75050;53.190;5.562;2024-03-08T09:31:55;101891.81;;;7.69;79.82
84815;BME280;75050;53.190;5.562;2024-03-08T09:34:21;101852.59;;;7.53;79.83
84815;BME280;75050;53.190;5.562;2024-03-08T09:36:46;101879.78;;;7.68;80.24
84815;BME280;75050;53.190;5.562;2024-03-08T09:39:12;101883.25;;;7.67;79.88
84815;BME280;75050;53.190;5.562;2024-03-08T09:41:43;101875.50;;;7.66;79.74
84815;BME280;75050;53.190;5.562;2024-03-08T09:44:09;101870.34;;;7.64;79.79
84815;BME280;75050;53.190;5.562;2024-03-08T09:46:34;101865.06;;;7.69;79.61
84815;BME280;75050;53.190;5.562;2024-03-08T09:49:00;101872.84;;;7.69;79.70
84815;BME280;75050;53.190;5.562;2024-03-08T09:51:30;101852.28;;;7.63;79.72
84815;BME280;75050;53.190;5.562;2024-03-08T09:53:58;101860.69;;;7.69;79.52
84815;BME280;75050;53.190;5.562;2024-03-08T09:56:24;101847.75;;;7.69;79.55
84815;BME280;75050;53.190;5.562;2024-03-08T09:58:50;101849.44;;;7.70;79.69
84815;BME280;75050;53.190;5.562;2024-03-08T10:01:31;101837.31;;;7.71;79.74
84815;BME280;75050;53.190;5.562;2024-03-08T10:03:57;101832.13;;;7.71;79.61
84815;BME280;75050;53.190;5.562;2024-03-08T10:06:23;101820.25;;;7.64;79.56
84815;BME280;75050;53.190;5.562;2024-03-08T10:08:49;101819.13;;;7.72;79.40
84815;BME280;75050;53.190;5.562;2024-03-08T10:11:17;101819.13;;;7.72;79.65
84815;BME280;75050;53.190;5.562;2024-03-08T10:13:44;101803.75;;;7.66;79.50
84815;BME280;75050;53.190;5.562;2024-03-08T10:16:12;101815.59;;;7.75;79.68
84815;BME280;75050;53.190;5.562;2024-03-08T10:18:37;101804.38;;;7.74;79.66
84815;BME280;75050;53.190;5.562;2024-03-08T10:21:04;101797.44;;;7.75;79.59
84815;BME280;75050;53.190;5.562;2024-03-08T10:23:31;101802.56;;;7.76;79.64
84815;BME280;75050;53.190;5.562;2024-03-08T10:26:17;101795.63;;;7.77;79.58
84815;BME280;75050;53.190;5.562;2024-03-08T10:28:47;101797.34;;;7.78;79.73
84815;BME280;75050;53.190;5.562;2024-03-08T10:31:13;101762.44;;;7.61;79.72
84815;BME280;75050;53.190;5.562;2024-03-08T10:33:40;101784.38;;;7.78;79.49
84815;BME280;75050;53.190;5.562;2024-03-08T10:36:10;101764.75;;;7.69;79.32
84815;BME280;75050;53.190;5.562;2024-03-08T10:38:40;101770.66;;;7.74;79.51
84815;BME280;75050;53.190;5.562;2024-03-08T10:41:10;101781.66;;;7.81;79.64
84815;BME280;75050;53.190;5.562;2024-03-08T10:47:02;101772.97;;;7.83;79.77
84815;BME280;75050;53.190;5.562;2024-03-08T10:49:35;101759.38;;;7.75;79.92
84815;BME280;75050;53.190;5.562;2024-03-08T10:52:05;101760.00;;;7.83;79.65
84815;BME280;75050;53.190;5.562;2024-03-08T10:54:34;101761.72;;;7.83;79.83
84815;BME280;75050;53.190;5.562;2024-03-08T10:57:05;101748.06;;;7.78;79.62
84815;BME280;75050;53.190;5.562;2024-03-08T10:59:32;101747.91;;;7.82;79.75
84815;BME280;75050;53.190;5.562;2024-03-08T11:01:59;101753.84;;;7.86;79.74
84815;BME280;75050;53.190;5.562;2024-03-08T11:04:25;101743.56;;;7.83;79.72
84815;BME280;75050;53.190;5.562;2024-03-08T11:06:51;101746.84;;;7.88;79.69
84815;BME280;75050;53.190;5.562;2024-03-08T11:09:30;101740.78;;;7.89;79.69
84815;BME280;75050;53.190;5.562;2024-03-08T11:14:59;101721.16;;;7.80;79.57
84815;BME280;75050;53.190;5.562;2024-03-08T11:20:09;101732.84;;;7.93;79.86
84815;BME280;75050;53.190;5.562;2024-03-08T11:22:53;101713.19;;;7.86;79.91
84815;BME280;75050;53.190;5.562;2024-03-08T11:25:38;101719.03;;;7.93;80.01
84815;BME280;75050;53.190;5.562;2024-03-08T11:28:15;101723.31;;;7.94;79.82
84815;BME280;75050;53.190;5.562;2024-03-08T11:33:29;101716.28;;;7.97;79.88
84815;BME280;75050;53.190;5.562;2024-03-08T11:36:22;101709.31;;;7.98;80.04
84815;BME280;75050;53.190;5.562;2024-03-08T11:38:49;101702.41;;;7.98;80.09
84815;BME280;75050;53.190;5.562;2024-03-08T11:41:20;101702.28;;;8.01;80.03
84815;BME280;75050;53.190;5.562;2024-03-08T11:43:46;101693.63;;;8.02;80.05
84815;BME280;75050;53.190;5.562;2024-03-08T11:46:13;101697.06;;;8.02;79.94
84815;BME280;75050;53.190;5.562;2024-03-08T11:48:43;101685.84;;;8.02;80.08
84815;BME280;75050;53.190;5.562;2024-03-08T11:51:12;101685.66;;;8.06;80.12
84815;BME280;75050;53.190;5.562;2024-03-08T11:53:38;101682.22;;;8.06;80.09
84815;BME280;75050;53.190;5.562;2024-03-08T11:56:09;101682.19;;;8.07;80.14
84815;BME280;75050;53.190;5.562;2024-03-08T11:58:34;101677.84;;;8.08;80.14
84815;BME280;75050;53.190;5.562;2024-03-08T12:01:07;101677.81;;;8.09;80.29
84815;BME280;75050;53.190;5.562;2024-03-08T12:03:33;101666.66;;;8.06;80.05
84815;BME280;75050;53.190;5.562;2024-03-08T12:06:02;101668.25;;;8.11;80.25
84815;BME280;75050;53.190;5.562;2024-03-08T12:08:30;101664.75;;;8.12;80.19
84815;BME280;75050;53.190;5.562;2024-03-08T12:10:55;101660.34;;;8.14;80.22
84815;BME280;75050;53.190;5.562;2024-03-08T12:13:30;101636.38;;;8.06;80.20
84815;BME280;75050;53.190;5.562;2024-03-08T12:16:01;101652.50;;;8.16;80.07
84815;BME280;75050;53.190;5.562;2024-03-08T12:18:33;101647.31;;;8.16;80.78
84815;BME280;75050;53.190;5.562;2024-03-08T12:21:09;101642.06;;;8.17;80.21
84815;BME280;75050;53.190;5.562;2024-03-08T12:23:36;101641.19;;;8.18;80.26
84815;BME280;75050;53.190;5.562;2024-03-08T12:26:12;101627.50;;;8.13;80.30
84815;BME280;75050;53.190;5.562;2024-03-08T12:28:41;101634.22;;;8.19;80.24
84815;BME280;75050;53.190;5.562;2024-03-08T12:31:07;101623.94;;;8.16;80.38
84815;BME280;75050;53.190;5.562;2024-03-08T12:33:37;101613.50;;;8.17;80.32
84815;BME280;75050;53.190;5.562;2024-03-08T12:36:03;101612.56;;;8.20;80.49
84815;BME280;75050;53.190;5.562;2024-03-08T12:38:32;101609.84;;;8.23;80.34
84815;BME280;75050;53.190;5.562;2024-03-08T12:41:00;101613.25;;;8.25;80.38
84815;BME280;75050;53.190;5.562;2024-03-08T12:43:26;101598.53;;;8.25;80.30
84815;BME280;75050;53.190;5.562;2024-03-08T12:45:55;101602.81;;;8.26;80.42
84815;BME280;75050;53.190;5.562;2024-03-08T12:48:20;101584.81;;;8.22;80.31
84815;BME280;75050;53.190;5.562;2024-03-08T12:50:46;101595.84;;;8.27;80.44
84815;BME280;75050;53.190;5.562;2024-03-08T12:53:13;101576.06;;;8.24;80.52
84815;BME280;75050;53.190;5.562;2024-03-08T12:55:39;101569.97;;;8.25;80.28
84815;BME280;75050;53.190;5.562;2024-03-08T12:58:06;101575.88;;;8.29;80.38
84815;BME280;75050;53.190;5.562;2024-03-08T13:00:33;101567.19;;;8.30;80.42
84815;BME280;75050;53.190;5.562;2024-03-08T13:03:01;101556.81;;;8.30;80.34
84815;BME280;75050;53.190;5.562;2024-03-08T13:05:27;101559.41;;;8.30;80.45
84815;BME280;75050;53.190;5.562;2024-03-08T13:07:53;101555.91;;;8.31;80.29
84815;BME280;75050;53.190;5.562;2024-03-08T13:10:20;101536.94;;;8.29;80.39